createdAt,value
2022-09-06T00:01:23.281Z,20.75
2022-09-06T00:03:50.922Z,20.83
2022-09-06T00:06:20.523Z,20.75
2022-09-06T00:09:06.944Z,20.74
2022-09-06T00:11:53.343Z,20.66
2022-09-06T00:14:40.009Z,20.72
2022-09-06T00:17:26.510Z,20.68
2022-09-06T00:20:13.042Z,20.65
2022-09-06T00:23:01.887Z,20.63
2022-09-06T00:25:29.950Z,20.63
2022-09-06T00:27:58.573Z,20.58
2022-09-06T00:30:26.311Z,20.54
2022-09-06T00:32:53.924Z,20.60
2022-09-06T00:35:21.879Z,20.59
2022-09-06T00:37:48.867Z,20.40
2022-09-06T00:40:16.019Z,20.45
2022-09-06T00:42:43.221Z,20.41
2022-09-06T00:45:11.810Z,20.40
2022-09-06T00:47:41.991Z,20.38
2022-09-06T00:50:12.824Z,20.37
2022-09-06T00:52:42.834Z,20.31
2022-09-06T00:55:10.039Z,20.41
2022-09-06T00:57:37.156Z,20.48
2022-09-06T01:00:06.537Z,20.35
2022-09-06T01:02:33.352Z,20.26
2022-09-06T01:05:01.288Z,20.37
2022-09-06T01:07:43.840Z,20.37
2022-09-06T01:10:31.632Z,20.39
2022-09-06T01:13:04.484Z,20.36
2022-09-06T01:16:06.450Z,20.33
2022-09-06T01:18:42.116Z,20.32
2022-09-06T01:21:33.284Z,20.33
2022-09-06T01:24:11.979Z,20.39
2022-09-06T01:26:58.433Z,20.36
2022-09-06T01:29:36.783Z,20.37
2022-09-06T01:32:25.274Z,20.33
2022-09-06T01:35:23.012Z,20.33
2022-09-06T01:37:49.839Z,20.32
2022-09-06T01:40:16.377Z,20.06
2022-09-06T01:42:46.461Z,19.75
2022-09-06T01:45:18.156Z,19.69
2022-09-06T01:47:57.086Z,19.95
2022-09-06T01:50:38.673Z,19.98
2022-09-06T01:53:30.040Z,20.03
2022-09-06T01:56:10.076Z,20.10
2022-09-06T01:59:06.499Z,20.09
2022-09-06T02:02:00.196Z,20.14
2022-09-06T02:04:31.030Z,20.15
2022-09-06T02:07:06.096Z,20.11
2022-09-06T02:09:40.896Z,20.15
2022-09-06T02:12:12.433Z,20.12
2022-09-06T02:14:43.678Z,20.13
2022-09-06T02:17:15.891Z,20.13
2022-09-06T02:19:48.575Z,20.18
2022-09-06T02:22:19.759Z,20.23
2022-09-06T02:24:50.016Z,20.19
2022-09-06T02:27:17.084Z,20.13
2022-09-06T02:29:45.104Z,20.22
2022-09-06T02:32:18.388Z,20.24
2022-09-06T02:34:46.135Z,20.26
2022-09-06T02:37:13.524Z,20.29
2022-09-06T02:39:40.513Z,20.26
2022-09-06T02:42:10.100Z,20.26
2022-09-06T02:44:37.049Z,20.21
2022-09-06T02:47:03.875Z,20.26
2022-09-06T02:49:31.202Z,20.28
2022-09-06T02:51:58.273Z,20.25
2022-09-06T02:54:25.331Z,20.20
2022-09-06T02:56:52.590Z,20.26
2022-09-06T02:59:19.640Z,20.33
2022-09-06T03:01:46.226Z,20.33
2022-09-06T03:04:12.960Z,20.34
2022-09-06T03:06:40.035Z,20.34
2022-09-06T03:09:06.515Z,20.28
2022-09-06T03:11:32.963Z,20.24
2022-09-06T03:13:59.871Z,20.20
2022-09-06T03:16:26.448Z,20.19
2022-09-06T03:18:53.248Z,20.26
2022-09-06T03:21:20.320Z,20.26
2022-09-06T03:23:47.315Z,20.31
2022-09-06T03:26:13.844Z,20.17
2022-09-06T03:28:40.531Z,20.10
2022-09-06T03:31:07.324Z,20.03
2022-09-06T03:33:34.559Z,19.98
2022-09-06T03:36:03.120Z,19.97
2022-09-06T03:38:30.399Z,19.91
2022-09-06T03:40:57.196Z,19.93
2022-09-06T03:43:26.010Z,19.85
2022-09-06T03:45:55.164Z,19.82
2022-09-06T03:48:23.556Z,19.92
2022-09-06T03:50:52.544Z,19.81
2022-09-06T03:53:19.897Z,19.79
2022-09-06T03:55:48.410Z,19.84
2022-09-06T03:58:17.317Z,19.77
2022-09-06T04:00:45.041Z,19.71
2022-09-06T04:03:11.791Z,19.66
2022-09-06T04:05:39.008Z,19.68
2022-09-06T04:08:05.975Z,19.69
2022-09-06T04:10:34.009Z,19.64
2022-09-06T04:13:00.646Z,19.66
2022-09-06T04:15:27.104Z,19.70
2022-09-06T04:17:54.039Z,19.66
2022-09-06T04:20:20.521Z,19.64
2022-09-06T04:22:47.200Z,19.63
2022-09-06T04:25:14.094Z,19.60
2022-09-06T04:27:40.740Z,19.58
2022-09-06T04:30:07.990Z,19.50
2022-09-06T04:32:34.686Z,19.42
2022-09-06T04:35:01.205Z,19.41
2022-09-06T04:37:28.307Z,19.37
2022-09-06T04:39:55.503Z,19.31
2022-09-06T04:42:22.447Z,19.27
2022-09-06T04:44:49.129Z,19.15
2022-09-06T04:47:19.176Z,19.16
2022-09-06T04:49:48.138Z,19.21
2022-09-06T04:52:16.133Z,19.14
2022-09-06T04:54:43.680Z,19.21
2022-09-06T04:57:10.646Z,19.18
2022-09-06T04:59:37.242Z,19.21
2022-09-06T05:02:04.222Z,19.11
2022-09-06T05:04:30.770Z,19.10
2022-09-06T05:07:05.670Z,19.14
2022-09-06T05:09:33.316Z,19.06
2022-09-06T05:12:00.838Z,19.10
2022-09-06T05:14:28.274Z,19.08
2022-09-06T05:16:55.139Z,19.02
2022-09-06T05:19:21.889Z,19.07
2022-09-06T05:21:50.677Z,19.06
2022-09-06T05:24:17.276Z,19.04
2022-09-06T05:26:43.979Z,19.06
2022-09-06T05:29:10.888Z,19.06
2022-09-06T05:31:37.444Z,18.97
2022-09-06T05:34:03.993Z,18.99
2022-09-06T05:36:31.300Z,18.90
2022-09-06T05:38:58.843Z,19.06
2022-09-06T05:41:25.900Z,19.12
2022-09-06T05:43:52.475Z,19.14
2022-09-06T05:46:19.706Z,19.08
2022-09-06T05:49:00.355Z,19.01
2022-09-06T05:51:27.117Z,19.02
2022-09-06T05:53:54.057Z,19.14
2022-09-06T05:56:22.389Z,18.97
2022-09-06T05:58:49.015Z,18.93
2022-09-06T06:01:22.828Z,19.05
2022-09-06T06:04:05.496Z,19.03
2022-09-06T06:06:34.118Z,19.13
2022-09-06T06:09:00.962Z,19.13
2022-09-06T06:11:27.896Z,19.06
2022-09-06T06:13:54.469Z,19.11
2022-09-06T06:16:22.656Z,19.08
2022-09-06T06:18:52.183Z,19.06
2022-09-06T06:21:21.883Z,18.98
2022-09-06T06:23:54.407Z,19.02
2022-09-06T06:26:21.706Z,19.06
2022-09-06T06:28:48.909Z,19.06
2022-09-06T06:31:19.232Z,19.16
2022-09-06T06:33:46.273Z,18.91
2022-09-06T06:36:13.175Z,18.94
2022-09-06T06:38:44.709Z,19.04
2022-09-06T06:41:13.524Z,19.00
2022-09-06T06:43:40.490Z,19.07
2022-09-06T06:46:09.459Z,19.09
2022-09-06T06:48:38.161Z,19.22
2022-09-06T06:51:05.043Z,19.13
2022-09-06T06:53:32.940Z,19.13
2022-09-06T06:55:59.412Z,19.22
2022-09-06T06:58:26.392Z,19.20
2022-09-06T07:00:53.879Z,19.36
2022-09-06T07:03:20.442Z,19.54
2022-09-06T07:08:34.749Z,19.64
2022-09-06T07:11:01.387Z,19.94
2022-09-06T07:13:28.395Z,20.00
2022-09-06T07:16:24.755Z,20.05
2022-09-06T07:18:53.180Z,20.09
2022-09-06T07:21:41.374Z,19.83
2022-09-06T07:24:09.242Z,20.11
2022-09-06T07:26:38.505Z,20.22
2022-09-06T07:29:06.813Z,20.41
2022-09-06T07:34:22.237Z,20.70
2022-09-06T07:36:52.411Z,20.95
2022-09-06T07:39:18.865Z,21.00
2022-09-06T07:41:45.639Z,21.13
2022-09-06T07:44:12.146Z,21.26
2022-09-06T07:46:38.700Z,21.12
2022-09-06T07:49:05.877Z,21.40
2022-09-06T07:51:32.905Z,21.45
2022-09-06T07:54:26.370Z,21.39
2022-09-06T07:56:46.468Z,21.56
2022-09-06T07:59:13.402Z,21.52
2022-09-06T08:01:40.812Z,21.56
2022-09-06T08:04:13.079Z,21.75
2022-09-06T08:09:33.159Z,21.90
2022-09-06T08:11:59.769Z,22.09
2022-09-06T08:14:26.472Z,22.06
2022-09-06T08:16:53.035Z,22.00
2022-09-06T08:19:19.528Z,21.87
2022-09-06T08:21:46.119Z,21.73
2022-09-06T08:24:13.209Z,21.92
2022-09-06T08:26:40.557Z,21.92
2022-09-06T08:29:08.588Z,21.68
2022-09-06T08:31:37.702Z,21.93
2022-09-06T08:34:04.339Z,22.19
2022-09-06T08:36:31.520Z,22.31
2022-09-06T08:39:04.473Z,22.58
2022-09-06T08:41:41.851Z,23.04
2022-09-06T08:47:02.157Z,23.54
2022-09-06T08:49:35.433Z,23.68
2022-09-06T08:52:22.461Z,23.58
2022-09-06T08:55:01.277Z,23.71
2022-09-06T08:57:53.459Z,23.79
2022-09-06T09:00:20.567Z,24.35
2022-09-06T09:02:51.707Z,24.43
2022-09-06T09:05:33.780Z,24.49
2022-09-06T09:08:08.016Z,24.50
2022-09-06T09:10:42.179Z,24.85
2022-09-06T09:13:18.489Z,24.71
2022-09-06T09:15:45.144Z,24.90
2022-09-06T09:18:11.903Z,25.12
2022-09-06T09:20:39.046Z,25.54
2022-09-06T09:23:05.587Z,25.84
2022-09-06T09:25:33.272Z,25.93
2022-09-06T09:28:00.281Z,25.77
2022-09-06T09:33:24.581Z,25.66
2022-09-06T09:35:51.696Z,25.90
2022-09-06T09:38:27.801Z,26.23
2022-09-06T09:41:01.564Z,25.99
2022-09-06T09:43:34.802Z,26.18
2022-09-06T09:46:24.327Z,26.79
2022-09-06T09:49:11.017Z,27.09
2022-09-06T09:51:39.075Z,26.99
2022-09-06T09:54:08.931Z,27.30
2022-09-06T09:56:43.629Z,27.80
2022-09-06T09:59:42.101Z,27.52
2022-09-06T10:02:30.014Z,27.42
2022-09-06T10:05:20.701Z,27.23
2022-09-06T10:07:49.775Z,27.27
2022-09-06T10:10:23.137Z,27.84
2022-09-06T10:13:07.238Z,28.36
2022-09-06T10:15:38.823Z,28.46
2022-09-06T10:18:05.654Z,28.50
2022-09-06T10:20:42.161Z,28.20
2022-09-06T10:26:38.333Z,29.36
2022-09-06T10:29:06.375Z,29.76
2022-09-06T10:31:47.398Z,29.88
2022-09-06T10:34:19.812Z,29.75
2022-09-06T10:36:54.832Z,29.57
2022-09-06T10:39:54.864Z,29.24
2022-09-06T10:42:33.863Z,29.78
2022-09-06T10:45:23.281Z,29.66
2022-09-06T10:47:54.919Z,29.22
2022-09-06T10:50:25.664Z,30.07
2022-09-06T10:52:53.361Z,30.75
2022-09-06T10:55:20.464Z,30.20
2022-09-06T11:00:47.272Z,31.18
2022-09-06T11:03:57.103Z,31.14
2022-09-06T11:06:32.678Z,31.15
2022-09-06T11:09:17.994Z,30.85
2022-09-06T11:11:46.454Z,30.33
2022-09-06T11:14:14.140Z,30.79
2022-09-06T11:16:59.129Z,30.79
2022-09-06T11:19:32.350Z,31.54
2022-09-06T11:22:40.828Z,32.09
2022-09-06T11:25:36.276Z,32.07
2022-09-06T11:28:09.780Z,32.24
2022-09-06T11:30:36.778Z,32.23
2022-09-06T11:33:18.614Z,31.55
2022-09-06T11:35:45.163Z,31.74
2022-09-06T11:38:14.608Z,32.11
2022-09-06T11:40:45.306Z,32.34
2022-09-06T11:43:42.698Z,31.59
2022-09-06T11:46:09.349Z,31.60
2022-09-06T11:49:02.453Z,32.31
2022-09-06T11:51:41.015Z,32.53
2022-09-06T11:54:19.989Z,32.22
2022-09-06T11:56:46.367Z,33.54
2022-09-06T11:59:33.297Z,32.89
2022-09-06T12:02:01.218Z,33.77
2022-09-06T12:05:07.495Z,33.57
2022-09-06T12:07:38.461Z,34.22
2022-09-06T12:10:30.162Z,33.22
2022-09-06T12:12:57.664Z,34.32
2022-09-06T12:15:32.832Z,34.48
2022-09-06T12:18:00.533Z,34.49
2022-09-06T12:20:48.884Z,34.25
2022-09-06T12:23:42.295Z,35.00
2022-09-06T12:26:10.600Z,35.46
2022-09-06T12:28:51.984Z,34.86
2022-09-06T12:31:39.591Z,34.28
2022-09-06T12:34:34.800Z,34.61
2022-09-06T12:37:04.865Z,34.28
2022-09-06T12:39:31.854Z,34.27
2022-09-06T12:42:04.879Z,34.03
2022-09-06T12:44:36.266Z,34.60
2022-09-06T12:47:24.766Z,33.95
2022-09-06T12:50:13.325Z,34.64
2022-09-06T12:52:54.296Z,35.05
2022-09-06T12:55:34.284Z,35.21
2022-09-06T12:58:04.830Z,35.33
2022-09-06T13:00:36.226Z,34.91
2022-09-06T13:03:20.967Z,35.46
2022-09-06T13:05:47.808Z,35.51
2022-09-06T13:08:22.753Z,36.95
2022-09-06T13:10:49.222Z,37.34
2022-09-06T13:13:24.599Z,34.67
2022-09-06T13:15:53.086Z,35.20
2022-09-06T13:18:35.346Z,34.98
2022-09-06T13:21:07.767Z,35.51
2022-09-06T13:23:46.686Z,35.37
2022-09-06T13:26:14.427Z,35.57
2022-09-06T13:28:41.380Z,34.89
2022-09-06T13:31:17.327Z,35.54
2022-09-06T13:33:45.146Z,34.76
2022-09-06T13:36:11.551Z,34.18
2022-09-06T13:38:37.966Z,35.19
2022-09-06T13:41:26.459Z,35.81
2022-09-06T13:44:00.657Z,35.77
2022-09-06T13:46:27.332Z,34.61
2022-09-06T13:48:54.571Z,35.04
2022-09-06T13:51:21.689Z,34.15
2022-09-06T13:53:48.903Z,33.82
2022-09-06T13:56:16.762Z,32.97
2022-09-06T13:58:45.079Z,32.81
2022-09-06T14:01:28.253Z,33.15
2022-09-06T14:03:55.131Z,32.77
2022-09-06T14:06:21.684Z,32.94
2022-09-06T14:09:07.248Z,32.78
2022-09-06T14:11:34.593Z,32.99
2022-09-06T14:14:01.127Z,33.08
2022-09-06T14:16:27.652Z,32.63
2022-09-06T14:18:54.128Z,32.51
2022-09-06T14:21:20.656Z,32.67
2022-09-06T14:23:52.049Z,32.22
2022-09-06T14:26:20.866Z,32.07
2022-09-06T14:28:47.869Z,32.19
2022-09-06T14:31:17.035Z,31.98
2022-09-06T14:33:43.924Z,31.73
2022-09-06T14:36:17.012Z,31.72
2022-09-06T14:38:45.322Z,31.67
2022-09-06T14:41:15.778Z,31.42
2022-09-06T14:43:43.471Z,31.20
2022-09-06T14:46:12.729Z,31.33
2022-09-06T14:48:42.434Z,31.22
2022-09-06T14:51:10.031Z,31.19
2022-09-06T14:53:41.349Z,31.18
2022-09-06T14:56:09.542Z,31.11
2022-09-06T14:58:37.767Z,30.92
2022-09-06T15:01:15.476Z,30.87
2022-09-06T15:03:44.496Z,30.81
2022-09-06T15:06:11.028Z,30.72
2022-09-06T15:08:37.933Z,30.62
2022-09-06T15:11:07.843Z,30.78
2022-09-06T15:13:36.163Z,30.57
2022-09-06T15:16:04.475Z,30.81
2022-09-06T15:18:31.835Z,30.72
2022-09-06T15:20:58.533Z,30.67
2022-09-06T15:23:27.370Z,30.64
2022-09-06T15:25:54.129Z,30.64
2022-09-06T15:28:20.878Z,30.47
2022-09-06T15:30:47.887Z,30.45
2022-09-06T15:33:15.005Z,30.42
2022-09-06T15:35:43.065Z,30.34
2022-09-06T15:38:12.761Z,30.43
2022-09-06T15:40:39.367Z,30.31
2022-09-06T15:43:06.222Z,30.26
2022-09-06T15:45:47.255Z,30.07
2022-09-06T15:48:15.863Z,29.95
2022-09-06T15:50:51.232Z,29.84
2022-09-06T15:53:19.359Z,29.74
2022-09-06T15:56:02.583Z,29.67
2022-09-06T15:58:30.425Z,29.68
2022-09-06T16:01:04.710Z,29.66
2022-09-06T16:03:32.711Z,29.73
2022-09-06T16:09:00.316Z,29.33
2022-09-06T16:11:28.905Z,29.38
2022-09-06T16:13:56.126Z,29.16
2022-09-06T16:16:23.026Z,28.99
2022-09-06T16:18:52.056Z,28.90
2022-09-06T16:21:25.170Z,28.58
2022-09-06T16:23:58.184Z,28.52
2022-09-06T16:26:27.926Z,28.21
2022-09-06T16:28:54.608Z,28.10
2022-09-06T16:31:22.013Z,27.93
2022-09-06T16:33:49.668Z,27.73
2022-09-06T16:36:17.671Z,27.85
2022-09-06T16:38:45.313Z,27.96
2022-09-06T16:41:22.762Z,28.09
2022-09-06T16:43:49.418Z,28.19
2022-09-06T16:46:16.351Z,28.29
2022-09-06T16:48:43.006Z,27.85
2022-09-06T16:51:15.206Z,27.94
2022-09-06T16:53:44.546Z,27.95
2022-09-06T16:56:12.885Z,27.62
2022-09-06T16:58:39.471Z,27.42
2022-09-06T17:01:08.483Z,27.06
2022-09-06T17:03:39.022Z,26.96
2022-09-06T17:06:07.429Z,26.92
2022-09-06T17:08:35.260Z,26.95
2022-09-06T17:11:06.607Z,26.83
2022-09-06T17:13:33.504Z,26.93
2022-09-06T17:16:22.107Z,26.75
2022-09-06T17:18:49.962Z,26.44
2022-09-06T17:21:16.451Z,26.59
2022-09-06T17:23:43.431Z,26.50
2022-09-06T17:26:09.895Z,26.30
2022-09-06T17:28:38.196Z,26.24
2022-09-06T17:31:05.691Z,26.10
2022-09-06T17:33:33.742Z,26.05
2022-09-06T17:36:12.787Z,26.00
2022-09-06T17:38:42.531Z,25.97
2022-09-06T17:41:20.414Z,25.81
2022-09-06T17:43:47.467Z,25.44
2022-09-06T17:46:14.959Z,25.43
2022-09-06T17:48:43.448Z,25.39
2022-09-06T17:51:11.346Z,25.34
2022-09-06T17:53:38.543Z,25.37
2022-09-06T17:56:09.980Z,25.26
2022-09-06T17:58:37.470Z,25.11
2022-09-06T18:01:04.923Z,24.94
2022-09-06T18:03:31.746Z,24.89
2022-09-06T18:06:13.580Z,24.57
2022-09-06T18:08:43.721Z,24.46
2022-09-06T18:11:18.047Z,24.24
2022-09-06T18:13:45.480Z,24.38
2022-09-06T18:16:14.028Z,24.47
2022-09-06T18:18:41.545Z,24.40
2022-09-06T18:21:08.102Z,24.30
2022-09-06T18:23:35.626Z,24.44
2022-09-06T18:26:05.372Z,24.60
2022-09-06T18:28:34.320Z,24.58
2022-09-06T18:31:09.456Z,24.05
2022-09-06T18:33:36.838Z,24.10
2022-09-06T18:36:05.024Z,24.21
2022-09-06T18:38:31.771Z,24.13
2022-09-06T18:41:04.146Z,24.19
2022-09-06T18:43:33.656Z,24.19
2022-09-06T18:46:04.066Z,24.17
2022-09-06T18:48:32.935Z,24.14
2022-09-06T18:51:11.633Z,23.90
2022-09-06T18:53:44.440Z,23.83
2022-09-06T18:56:13.164Z,23.78
2022-09-06T18:58:40.808Z,23.72
2022-09-06T19:01:12.874Z,23.16
2022-09-06T19:03:40.511Z,23.30
2022-09-06T19:06:16.227Z,23.38
2022-09-06T19:08:43.503Z,23.45
2022-09-06T19:11:19.184Z,23.27
2022-09-06T19:13:50.058Z,23.17
2022-09-06T19:16:17.027Z,23.18
2022-09-06T19:18:44.096Z,23.05
2022-09-06T19:21:19.066Z,23.03
2022-09-06T19:23:47.794Z,22.99
2022-09-06T19:26:20.460Z,22.96
2022-09-06T19:28:53.107Z,23.03
2022-09-06T19:31:20.107Z,22.95
2022-09-06T19:33:48.228Z,23.07
2022-09-06T19:36:15.863Z,22.86
2022-09-06T19:39:02.067Z,22.85
2022-09-06T19:41:30.677Z,22.83
2022-09-06T19:43:58.485Z,22.71
2022-09-06T19:46:26.640Z,22.54
2022-09-06T19:48:56.006Z,22.38
2022-09-06T19:51:23.588Z,22.34
2022-09-06T19:53:53.052Z,22.45
2022-09-06T19:56:22.393Z,22.46
2022-09-06T19:58:55.255Z,22.28
2022-09-06T20:01:22.839Z,22.22
2022-09-06T20:03:49.989Z,22.23
2022-09-06T20:06:16.701Z,22.08
2022-09-06T20:08:43.202Z,21.95
2022-09-06T20:11:12.763Z,21.85
2022-09-06T20:13:40.380Z,22.02
2022-09-06T20:16:08.636Z,22.02
2022-09-06T20:18:35.506Z,21.83
2022-09-06T20:21:02.998Z,21.71
2022-09-06T20:23:31.935Z,21.63
2022-09-06T20:26:04.316Z,21.72
2022-09-06T20:28:32.042Z,21.65
2022-09-06T20:31:06.270Z,21.65
2022-09-06T20:33:33.812Z,21.59
2022-09-06T20:36:02.931Z,21.47
2022-09-06T20:38:35.437Z,21.66
2022-09-06T20:41:07.709Z,21.43
2022-09-06T20:43:38.958Z,21.36
2022-09-06T20:46:17.013Z,21.12
2022-09-06T20:48:45.535Z,21.07
2022-09-06T20:51:18.837Z,21.06
2022-09-06T20:53:48.323Z,21.12
2022-09-06T20:56:17.438Z,21.12
2022-09-06T20:58:49.166Z,21.18
2022-09-06T21:01:22.557Z,21.09
2022-09-06T21:03:52.376Z,20.97
2022-09-06T21:06:20.505Z,20.96
2022-09-06T21:08:47.979Z,21.02
2022-09-06T21:11:14.807Z,20.91
2022-09-06T21:13:42.131Z,20.84
2022-09-06T21:16:08.877Z,20.90
2022-09-06T21:18:36.013Z,20.98
2022-09-06T21:21:05.521Z,20.86
2022-09-06T21:23:35.390Z,21.03
2022-09-06T21:26:03.225Z,20.95
2022-09-06T21:28:32.801Z,20.82
2022-09-06T21:31:12.303Z,20.85
2022-09-06T21:33:43.196Z,20.93
2022-09-06T21:36:15.357Z,20.99
2022-09-06T21:38:45.571Z,20.98
2022-09-06T21:41:14.037Z,20.75
2022-09-06T21:43:41.226Z,20.86
2022-09-06T21:46:10.860Z,20.83
2022-09-06T21:48:38.799Z,20.78
2022-09-06T21:51:14.079Z,20.72
2022-09-06T21:53:42.694Z,20.75
2022-09-06T21:56:10.136Z,20.73
2022-09-06T21:58:37.220Z,20.76
2022-09-06T22:01:04.963Z,20.80
2022-09-06T22:03:35.209Z,20.80
2022-09-06T22:06:13.963Z,20.78
2022-09-06T22:08:43.783Z,20.62
2022-09-06T22:11:22.344Z,20.55
2022-09-06T22:13:50.169Z,20.72
2022-09-06T22:16:20.324Z,20.81
2022-09-06T22:18:49.211Z,20.92
2022-09-06T22:21:20.098Z,21.07
2022-09-06T22:24:01.855Z,21.02
2022-09-06T22:26:30.397Z,21.01
2022-09-06T22:28:58.956Z,21.00
2022-09-06T22:31:27.397Z,21.05
2022-09-06T22:33:54.701Z,21.01
2022-09-06T22:36:23.704Z,20.97
2022-09-06T22:38:53.290Z,20.93
2022-09-06T22:41:19.845Z,20.91
2022-09-06T22:43:46.540Z,20.86
2022-09-06T22:46:13.886Z,20.92
2022-09-06T22:48:41.262Z,20.87
2022-09-06T22:51:08.120Z,20.93
2022-09-06T22:53:35.135Z,20.93
2022-09-06T22:56:02.534Z,20.91
2022-09-06T22:58:29.614Z,20.86
2022-09-06T23:00:57.276Z,20.86
2022-09-06T23:03:24.035Z,20.90
2022-09-06T23:05:50.865Z,20.79
2022-09-06T23:08:17.411Z,20.80
2022-09-06T23:10:44.345Z,20.84
2022-09-06T23:13:11.371Z,20.80
2022-09-06T23:15:40.731Z,20.78
2022-09-06T23:18:08.573Z,20.75
2022-09-06T23:20:36.839Z,20.76
2022-09-06T23:23:05.225Z,20.73
2022-09-06T23:25:31.954Z,20.76
2022-09-06T23:28:00.077Z,20.70
2022-09-06T23:30:27.082Z,20.68
2022-09-06T23:32:53.918Z,20.66
2022-09-06T23:35:20.370Z,20.72
2022-09-06T23:37:51.359Z,20.62
2022-09-06T23:40:19.430Z,20.52
2022-09-06T23:42:46.902Z,20.64
2022-09-06T23:45:13.816Z,20.69
2022-09-06T23:47:41.080Z,20.63
2022-09-06T23:50:07.800Z,20.68
2022-09-06T23:52:34.503Z,20.69
2022-09-06T23:55:00.956Z,20.59
2022-09-06T23:57:27.663Z,20.59
2022-09-06T23:59:54.095Z,20.51
